TXW weather

Mid Valley Airport
Weslaco, Texas, United States

Public forecast

Using degrees Fahrenheit for public forecast. Weather courtesy of forecast.io.

Current aviation weather report (METAR) for Mid Valley Airport

Retrieved 2019/10/22 20:35 UTC (0 seconds ago):

KTXW 222035Z AUTO 08014G20KT 10SM SCT120 29/15 A3006 RMK AO2 T02940151

Closest aviation forecast (TAF) to Mid Valley Airport

Closest forecast is Mc Allen Miller International Airport, 14.3 nm (26.5 km) W. Retrieved 2019/10/22 18:24 UTC (2 hours ago):

TAF KMFE 221722Z 2218/2318 05010KT P6SM SKC FM231700 11012KT P6SM FEW045 FEW180